sensor_id;sensor_type;location;lat;lon;timestamp;temperature;humidity
78896;HTU21D;68284;59.124;37.910;2023-12-20T00:00:10;2.28;82.01
78896;HTU21D;68284;59.124;37.910;2023-12-20T00:02:36;2.29;82.02
78896;HTU21D;68284;59.124;37.910;2023-12-20T00:05:03;2.31;82.01
78896;HTU21D;68284;59.124;37.910;2023-12-20T00:07:29;2.35;82.01
78896;HTU21D;68284;59.124;37.910;2023-12-20T00:09:55;2.40;82.01
78896;HTU21D;68284;59.124;37.910;2023-12-20T00:12:22;2.45;81.95
78896;HTU21D;68284;59.124;37.910;2023-12-20T00:14:49;2.51;81.91
78896;HTU21D;68284;59.124;37.910;2023-12-20T00:17:15;2.55;81.80
78896;HTU21D;68284;59.124;37.910;2023-12-20T00:19:41;2.58;81.75
78896;HTU21D;68284;59.124;37.910;2023-12-20T00:22:09;2.61;81.73
78896;HTU21D;68284;59.124;37.910;2023-12-20T00:24:36;2.64;81.68
78896;HTU21D;68284;59.124;37.910;2023-12-20T00:27:02;2.64;81.65
78896;HTU21D;68284;59.124;37.910;2023-12-20T00:29:28;2.66;81.58
78896;HTU21D;68284;59.124;37.910;2023-12-20T00:31:55;2.61;81.49
78896;HTU21D;68284;59.124;37.910;2023-12-20T00:34:21;2.57;81.45
78896;HTU21D;68284;59.124;37.910;2023-12-20T00:36:47;2.51;81.49
78896;HTU21D;68284;59.124;37.910;2023-12-20T00:39:14;2.44;81.57
78896;HTU21D;68284;59.124;37.910;2023-12-20T00:41:41;2.36;81.70
78896;HTU21D;68284;59.124;37.910;2023-12-20T00:44:07;2.29;81.86
78896;HTU21D;68284;59.124;37.910;2023-12-20T00:46:33;2.25;81.97
78896;HTU21D;68284;59.124;37.910;2023-12-20T00:49:00;2.19;82.08
78896;HTU21D;68284;59.124;37.910;2023-12-20T00:51:26;2.15;82.22
78896;HTU21D;68284;59.124;37.910;2023-12-20T00:53:52;2.11;82.32
78896;HTU21D;68284;59.124;37.910;2023-12-20T00:56:21;2.08;82.43
78896;HTU21D;68284;59.124;37.910;2023-12-20T00:58:47;2.07;82.46
78896;HTU21D;68284;59.124;37.910;2023-12-20T01:01:13;2.06;82.42
78896;HTU21D;68284;59.124;37.910;2023-12-20T01:03:40;2.02;82.42
78896;HTU21D;68284;59.124;37.910;2023-12-20T01:06:06;1.99;82.49
78896;HTU21D;68284;59.124;37.910;2023-12-20T01:08:32;1.97;82.52
78896;HTU21D;68284;59.124;37.910;2023-12-20T01:11:03;1.94;82.58
78896;HTU21D;68284;59.124;37.910;2023-12-20T01:13:30;1.91;82.65
78896;HTU21D;68284;59.124;37.910;2023-12-20T01:15:56;1.88;82.73
78896;HTU21D;68284;59.124;37.910;2023-12-20T01:18:22;1.85;82.85
78896;HTU21D;68284;59.124;37.910;2023-12-20T01:20:48;1.81;82.93
78896;HTU21D;68284;59.124;37.910;2023-12-20T01:23:16;1.80;83.05
78896;HTU21D;68284;59.124;37.910;2023-12-20T01:25:42;1.79;83.07
78896;HTU21D;68284;59.124;37.910;2023-12-20T01:28:09;1.78;83.16
78896;HTU21D;68284;59.124;37.910;2023-12-20T01:30:35;1.76;83.10
78896;HTU21D;68284;59.124;37.910;2023-12-20T01:33:02;1.75;83.12
78896;HTU21D;68284;59.124;37.910;2023-12-20T01:35:28;1.76;83.13
78896;HTU21D;68284;59.124;37.910;2023-12-20T01:37:54;1.71;83.21
78896;HTU21D;68284;59.124;37.910;2023-12-20T01:40:24;1.69;83.26
78896;HTU21D;68284;59.124;37.910;2023-12-20T01:43:07;1.68;83.35
78896;HTU21D;68284;59.124;37.910;2023-12-20T01:45:35;1.68;83.40
78896;HTU21D;68284;59.124;37.910;2023-12-20T01:48:01;1.66;83.43
78896;HTU21D;68284;59.124;37.910;2023-12-20T01:50:29;1.66;83.36
78896;HTU21D;68284;59.124;37.910;2023-12-20T01:52:59;1.65;83.44
78896;HTU21D;68284;59.124;37.910;2023-12-20T01:55:31;1.66;83.52
78896;HTU21D;68284;59.124;37.910;2023-12-20T01:57:59;1.69;83.58
78896;HTU21D;68284;59.124;37.910;2023-12-20T02:00:27;1.72;83.56
78896;HTU21D;68284;59.124;37.910;2023-12-20T02:02:54;1.76;83.47
78896;HTU21D;68284;59.124;37.910;2023-12-20T02:05:21;1.79;83.46
78896;HTU21D;68284;59.124;37.910;2023-12-20T02:07:48;1.82;83.45
78896;HTU21D;68284;59.124;37.910;2023-12-20T02:10:15;1.86;83.41
78896;HTU21D;68284;59.124;37.910;2023-12-20T02:12:42;1.92;83.32
78896;HTU21D;68284;59.124;37.910;2023-12-20T02:15:09;1.96;83.23
78896;HTU21D;68284;59.124;37.910;2023-12-20T02:17:36;1.99;83.10
78896;HTU21D;68284;59.124;37.910;2023-12-20T02:20:04;2.02;82.92
78896;HTU21D;68284;59.124;37.910;2023-12-20T02:22:32;2.03;82.77
78896;HTU21D;68284;59.124;37.910;2023-12-20T02:24:59;2.01;82.67
78896;HTU21D;68284;59.124;37.910;2023-12-20T02:27:25;1.98;82.61
78896;HTU21D;68284;59.124;37.910;2023-12-20T02:29:52;1.96;82.51
78896;HTU21D;68284;59.124;37.910;2023-12-20T02:32:19;1.94;82.48
78896;HTU21D;68284;59.124;37.910;2023-12-20T02:34:49;1.93;82.48
78896;HTU21D;68284;59.124;37.910;2023-12-20T02:37:15;1.94;82.46
78896;HTU21D;68284;59.124;37.910;2023-12-20T02:39:41;1.97;82.42
78896;HTU21D;68284;59.124;37.910;2023-12-20T02:42:09;2.00;82.38
78896;HTU21D;68284;59.124;37.910;2023-12-20T02:44:35;2.05;82.27
78896;HTU21D;68284;59.124;37.910;2023-12-20T02:47:02;2.11;82.13
78896;HTU21D;68284;59.124;37.910;2023-12-20T02:49:28;2.13;81.93
78896;HTU21D;68284;59.124;37.910;2023-12-20T02:51:54;2.17;81.81
78896;HTU21D;68284;59.124;37.910;2023-12-20T02:54:21;2.19;81.74
78896;HTU21D;68284;59.124;37.910;2023-12-20T02:56:48;2.22;81.72
78896;HTU21D;68284;59.124;37.910;2023-12-20T02:59:14;2.25;81.66
78896;HTU21D;68284;59.124;37.910;2023-12-20T03:01:45;2.28;81.53
78896;HTU21D;68284;59.124;37.910;2023-12-20T03:04:12;2.31;81.49
78896;HTU21D;68284;59.124;37.910;2023-12-20T03:06:38;2.34;81.40
78896;HTU21D;68284;59.124;37.910;2023-12-20T03:09:06;2.35;81.39
78896;HTU21D;68284;59.124;37.910;2023-12-20T03:11:33;2.38;81.28
78896;HTU21D;68284;59.124;37.910;2023-12-20T03:14:01;2.42;81.30
78896;HTU21D;68284;59.124;37.910;2023-12-20T03:16:27;2.44;81.19
78896;HTU21D;68284;59.124;37.910;2023-12-20T03:18:53;2.46;81.01
78896;HTU21D;68284;59.124;37.910;2023-12-20T03:21:20;2.51;80.99
78896;HTU21D;68284;59.124;37.910;2023-12-20T03:23:46;2.51;80.75
78896;HTU21D;68284;59.124;37.910;2023-12-20T03:26:12;2.52;80.68
78896;HTU21D;68284;59.124;37.910;2023-12-20T03:28:39;2.52;80.63
78896;HTU21D;68284;59.124;37.910;2023-12-20T03:31:05;2.51;80.59
78896;HTU21D;68284;59.124;37.910;2023-12-20T03:33:32;2.52;80.44
78896;HTU21D;68284;59.124;37.910;2023-12-20T03:35:58;2.53;80.50
78896;HTU21D;68284;59.124;37.910;2023-12-20T03:38:25;2.55;80.55
78896;HTU21D;68284;59.124;37.910;2023-12-20T03:40:51;2.57;80.40
78896;HTU21D;68284;59.124;37.910;2023-12-20T03:43:19;2.58;80.34
78896;HTU21D;68284;59.124;37.910;2023-12-20T03:45:45;2.60;80.28
78896;HTU21D;68284;59.124;37.910;2023-12-20T03:48:13;2.60;80.19
78896;HTU21D;68284;59.124;37.910;2023-12-20T03:50:40;2.61;80.20
78896;HTU21D;68284;59.124;37.910;2023-12-20T03:53:06;2.61;80.03
78896;HTU21D;68284;59.124;37.910;2023-12-20T03:55:33;2.62;80.07
78896;HTU21D;68284;59.124;37.910;2023-12-20T03:57:59;2.61;79.96
78896;HTU21D;68284;59.124;37.910;2023-12-20T04:00:26;2.65;79.84
78896;HTU21D;68284;59.124;37.910;2023-12-20T04:02:52;2.64;79.78
78896;HTU21D;68284;59.124;37.910;2023-12-20T04:05:19;2.61;79.66
78896;HTU21D;68284;59.124;37.910;2023-12-20T04:07:45;2.59;79.50
78896;HTU21D;68284;59.124;37.910;2023-12-20T04:10:12;2.55;79.46
78896;HTU21D;68284;59.124;37.910;2023-12-20T04:12:39;2.50;79.54
78896;HTU21D;68284;59.124;37.910;2023-12-20T04:15:06;2.46;79.53
78896;HTU21D;68284;59.124;37.910;2023-12-20T04:17:35;2.44;79.61
78896;HTU21D;68284;59.124;37.910;2023-12-20T04:20:03;2.43;79.65
78896;HTU21D;68284;59.124;37.910;2023-12-20T04:22:31;2.41;79.69
78896;HTU21D;68284;59.124;37.910;2023-12-20T04:24:57;2.40;79.78
78896;HTU21D;68284;59.124;37.910;2023-12-20T04:27:24;2.40;79.82
78896;HTU21D;68284;59.124;37.910;2023-12-20T04:29:52;2.41;79.78
78896;HTU21D;68284;59.124;37.910;2023-12-20T04:32:20;2.43;79.75
78896;HTU21D;68284;59.124;37.910;2023-12-20T04:34:47;2.47;79.72
78896;HTU21D;68284;59.124;37.910;2023-12-20T04:37:14;2.51;79.62
78896;HTU21D;68284;59.124;37.910;2023-12-20T04:39:40;2.56;79.53
78896;HTU21D;68284;59.124;37.910;2023-12-20T04:42:08;2.60;79.46
78896;HTU21D;68284;59.124;37.910;2023-12-20T04:44:34;2.66;79.37
78896;HTU21D;68284;59.124;37.910;2023-12-20T04:47:01;2.72;79.17
78896;HTU21D;68284;59.124;37.910;2023-12-20T04:49:27;2.76;79.05
78896;HTU21D;68284;59.124;37.910;2023-12-20T04:51:54;2.81;78.98
78896;HTU21D;68284;59.124;37.910;2023-12-20T04:54:21;2.86;78.73
78896;HTU21D;68284;59.124;37.910;2023-12-20T04:56:49;2.89;78.53
78896;HTU21D;68284;59.124;37.910;2023-12-20T04:59:15;2.93;78.25
78896;HTU21D;68284;59.124;37.910;2023-12-20T05:01:42;2.94;77.85
78896;HTU21D;68284;59.124;37.910;2023-12-20T05:04:08;2.96;77.81
78896;HTU21D;68284;59.124;37.910;2023-12-20T05:06:35;2.98;77.83
78896;HTU21D;68284;59.124;37.910;2023-12-20T05:09:01;3.01;77.80
78896;HTU21D;68284;59.124;37.910;2023-12-20T05:11:27;3.03;77.67
78896;HTU21D;68284;59.124;37.910;2023-12-20T05:13:54;3.06;77.40
78896;HTU21D;68284;59.124;37.910;2023-12-20T05:16:20;3.08;77.29
78896;HTU21D;68284;59.124;37.910;2023-12-20T05:18:48;3.10;77.24
78896;HTU21D;68284;59.124;37.910;2023-12-20T05:21:17;3.13;76.99
78896;HTU21D;68284;59.124;37.910;2023-12-20T05:23:45;3.14;76.92
78896;HTU21D;68284;59.124;37.910;2023-12-20T05:26:13;3.15;76.65
78896;HTU21D;68284;59.124;37.910;2023-12-20T05:28:39;3.15;76.53
78896;HTU21D;68284;59.124;37.910;2023-12-20T05:31:05;3.17;76.44
78896;HTU21D;68284;59.124;37.910;2023-12-20T05:33:33;3.17;76.14
78896;HTU21D;68284;59.124;37.910;2023-12-20T05:36:00;3.17;75.71
78896;HTU21D;68284;59.124;37.910;2023-12-20T05:38:27;3.17;75.54
78896;HTU21D;68284;59.124;37.910;2023-12-20T05:40:55;3.15;75.50
78896;HTU21D;68284;59.124;37.910;2023-12-20T05:43:21;3.15;75.44
78896;HTU21D;68284;59.124;37.910;2023-12-20T05:45:48;3.12;75.55
78896;HTU21D;68284;59.124;37.910;2023-12-20T05:48:14;3.10;75.38
78896;HTU21D;68284;59.124;37.910;2023-12-20T05:50:41;3.05;75.24
78896;HTU21D;68284;59.124;37.910;2023-12-20T05:53:12;3.00;75.28
78896;HTU21D;68284;59.124;37.910;2023-12-20T05:55:38;2.96;75.52
78896;HTU21D;68284;59.124;37.910;2023-12-20T05:58:07;2.93;75.55
78896;HTU21D;68284;59.124;37.910;2023-12-20T06:00:34;2.93;75.65
78896;HTU21D;68284;59.124;37.910;2023-12-20T06:03:03;2.94;75.61
78896;HTU21D;68284;59.124;37.910;2023-12-20T06:05:31;2.95;75.62
78896;HTU21D;68284;59.124;37.910;2023-12-20T06:07:57;2.98;75.55
78896;HTU21D;68284;59.124;37.910;2023-12-20T06:10:27;3.00;75.40
78896;HTU21D;68284;59.124;37.910;2023-12-20T06:12:58;3.01;75.39
78896;HTU21D;68284;59.124;37.910;2023-12-20T06:15:27;3.03;75.37
78896;HTU21D;68284;59.124;37.910;2023-12-20T06:17:53;3.04;75.28
78896;HTU21D;68284;59.124;37.910;2023-12-20T06:20:21;3.08;75.22
78896;HTU21D;68284;59.124;37.910;2023-12-20T06:22:48;3.08;75.08
78896;HTU21D;68284;59.124;37.910;2023-12-20T06:25:18;3.09;75.25
78896;HTU21D;68284;59.124;37.910;2023-12-20T06:27:45;3.12;75.26
78896;HTU21D;68284;59.124;37.910;2023-12-20T06:30:11;3.12;75.27
78896;HTU21D;68284;59.124;37.910;2023-12-20T06:32:38;3.13;75.07
78896;HTU21D;68284;59.124;37.910;2023-12-20T06:35:08;3.13;75.25
78896;HTU21D;68284;59.124;37.910;2023-12-20T06:37:36;3.13;75.29
78896;HTU21D;68284;59.124;37.910;2023-12-20T06:40:03;3.12;75.18
78896;HTU21D;68284;59.124;37.910;2023-12-20T06:42:30;3.13;75.32
78896;HTU21D;68284;59.124;37.910;2023-12-20T06:44:56;3.13;75.41
78896;HTU21D;68284;59.124;37.910;2023-12-20T06:47:24;3.13;75.33
78896;HTU21D;68284;59.124;37.910;2023-12-20T06:49:54;3.14;75.41
78896;HTU21D;68284;59.124;37.910;2023-12-20T06:52:20;3.15;75.38
78896;HTU21D;68284;59.124;37.910;2023-12-20T06:54:51;3.13;75.40
78896;HTU21D;68284;59.124;37.910;2023-12-20T06:57:19;3.09;75.34
78896;HTU21D;68284;59.124;37.910;2023-12-20T06:59:48;3.03;75.34
78896;HTU21D;68284;59.124;37.910;2023-12-20T07:02:15;2.96;75.42
78896;HTU21D;68284;59.124;37.910;2023-12-20T07:04:41;2.88;75.50
78896;HTU21D;68284;59.124;37.910;2023-12-20T07:07:09;2.86;75.50
78896;HTU21D;68284;59.124;37.910;2023-12-20T07:09:36;2.83;75.59
78896;HTU21D;68284;59.124;37.910;2023-12-20T07:12:04;2.83;75.52
78896;HTU21D;68284;59.124;37.910;2023-12-20T07:14:31;2.84;75.46
78896;HTU21D;68284;59.124;37.910;2023-12-20T07:17:03;2.86;75.54
78896;HTU21D;68284;59.124;37.910;2023-12-20T07:19:29;2.87;75.47
78896;HTU21D;68284;59.124;37.910;2023-12-20T07:22:02;2.89;75.45
78896;HTU21D;68284;59.124;37.910;2023-12-20T07:24:28;2.90;75.44
78896;HTU21D;68284;59.124;37.910;2023-12-20T07:26:54;2.93;75.49
78896;HTU21D;68284;59.124;37.910;2023-12-20T07:29:21;2.98;75.34
78896;HTU21D;68284;59.124;37.910;2023-12-20T07:31:47;3.01;75.38
78896;HTU21D;68284;59.124;37.910;2023-12-20T07:34:14;3.05;75.34
78896;HTU21D;68284;59.124;37.910;2023-12-20T07:36:43;3.08;75.35
78896;HTU21D;68284;59.124;37.910;2023-12-20T07:39:10;3.13;75.18
78896;HTU21D;68284;59.124;37.910;2023-12-20T07:41:38;3.16;75.02
78896;HTU21D;68284;59.124;37.910;2023-12-20T07:44:06;3.18;75.09
78896;HTU21D;68284;59.124;37.910;2023-12-20T07:46:33;3.21;74.88
78896;HTU21D;68284;59.124;37.910;2023-12-20T07:49:00;3.25;74.73
78896;HTU21D;68284;59.124;37.910;2023-12-20T07:51:26;3.26;74.67
78896;HTU21D;68284;59.124;37.910;2023-12-20T07:53:53;3.28;74.60
78896;HTU21D;68284;59.124;37.910;2023-12-20T07:56:19;3.30;74.51
78896;HTU21D;68284;59.124;37.910;2023-12-20T07:58:46;3.32;74.42
78896;HTU21D;68284;59.124;37.910;2023-12-20T08:01:16;3.33;74.30
78896;HTU21D;68284;59.124;37.910;2023-12-20T08:03:42;3.34;74.25
78896;HTU21D;68284;59.124;37.910;2023-12-20T08:06:09;3.32;74.03
78896;HTU21D;68284;59.124;37.910;2023-12-20T08:08:35;3.27;74.01
78896;HTU21D;68284;59.124;37.910;2023-12-20T08:11:02;3.20;74.12
78896;HTU21D;68284;59.124;37.910;2023-12-20T08:13:28;3.16;74.24
78896;HTU21D;68284;59.124;37.910;2023-12-20T08:15:55;3.11;73.94
78896;HTU21D;68284;59.124;37.910;2023-12-20T08:18:23;3.08;74.08
78896;HTU21D;68284;59.124;37.910;2023-12-20T08:20:51;3.04;73.99
78896;HTU21D;68284;59.124;37.910;2023-12-20T08:23:21;3.03;73.96
78896;HTU21D;68284;59.124;37.910;2023-12-20T08:25:48;3.01;73.78
78896;HTU21D;68284;59.124;37.910;2023-12-20T08:28:15;3.01;73.68
78896;HTU21D;68284;59.124;37.910;2023-12-20T08:30:44;2.99;73.69
78896;HTU21D;68284;59.124;37.910;2023-12-20T08:33:10;2.98;73.50
78896;HTU21D;68284;59.124;37.910;2023-12-20T08:35:39;2.98;73.40
78896;HTU21D;68284;59.124;37.910;2023-12-20T08:38:06;2.97;73.18
78896;HTU21D;68284;59.124;37.910;2023-12-20T08:40:34;2.99;72.93
78896;HTU21D;68284;59.124;37.910;2023-12-20T08:43:00;3.00;72.77
78896;HTU21D;68284;59.124;37.910;2023-12-20T08:45:27;3.00;72.75
78896;HTU21D;68284;59.124;37.910;2023-12-20T08:47:53;3.02;72.75
78896;HTU21D;68284;59.124;37.910;2023-12-20T08:50:20;3.02;72.77
78896;HTU21D;68284;59.124;37.910;2023-12-20T08:52:46;3.04;72.61
78896;HTU21D;68284;59.124;37.910;2023-12-20T08:55:13;3.05;72.51
78896;HTU21D;68284;59.124;37.910;2023-12-20T08:57:41;3.06;72.47
78896;HTU21D;68284;59.124;37.910;2023-12-20T09:00:07;3.09;72.42
78896;HTU21D;68284;59.124;37.910;2023-12-20T09:02:34;3.11;72.40
78896;HTU21D;68284;59.124;37.910;2023-12-20T09:05:04;3.14;72.54
78896;HTU21D;68284;59.124;37.910;2023-12-20T09:07:30;3.19;73.86
78896;HTU21D;68284;59.124;37.910;2023-12-20T09:09:59;3.29;72.72
78896;HTU21D;68284;59.124;37.910;2023-12-20T09:12:29;3.35;72.63
78896;HTU21D;68284;59.124;37.910;2023-12-20T09:14:55;3.39;71.74
78896;HTU21D;68284;59.124;37.910;2023-12-20T09:17:22;3.36;71.34
78896;HTU21D;68284;59.124;37.910;2023-12-20T09:19:51;3.33;71.24
78896;HTU21D;68284;59.124;37.910;2023-12-20T09:22:21;3.31;71.32
78896;HTU21D;68284;59.124;37.910;2023-12-20T09:24:47;3.29;71.20
78896;HTU21D;68284;59.124;37.910;2023-12-20T09:27:14;3.26;71.33
78896;HTU21D;68284;59.124;37.910;2023-12-20T09:29:40;3.24;71.48
78896;HTU21D;68284;59.124;37.910;2023-12-20T09:32:07;3.23;71.71
78896;HTU21D;68284;59.124;37.910;2023-12-20T09:34:33;3.18;71.42
78896;HTU21D;68284;59.124;37.910;2023-12-20T09:37:00;3.15;71.57
78896;HTU21D;68284;59.124;37.910;2023-12-20T09:39:26;3.11;71.58
78896;HTU21D;68284;59.124;37.910;2023-12-20T09:42:05;3.09;71.64
78896;HTU21D;68284;59.124;37.910;2023-12-20T09:44:32;3.06;71.58
78896;HTU21D;68284;59.124;37.910;2023-12-20T09:47:03;3.06;71.60
78896;HTU21D;68284;59.124;37.910;2023-12-20T09:49:30;3.11;71.58
78896;HTU21D;68284;59.124;37.910;2023-12-20T09:51:57;3.14;71.35
78896;HTU21D;68284;59.124;37.910;2023-12-20T09:54:25;3.17;71.31
78896;HTU21D;68284;59.124;37.910;2023-12-20T09:56:53;3.20;71.16
78896;HTU21D;68284;59.124;37.910;2023-12-20T09:59:19;3.21;70.78
78896;HTU21D;68284;59.124;37.910;2023-12-20T10:01:46;3.23;70.88
78896;HTU21D;68284;59.124;37.910;2023-12-20T10:04:13;3.27;70.81
78896;HTU21D;68284;59.124;37.910;2023-12-20T10:06:43;3.33;70.49
78896;HTU21D;68284;59.124;37.910;2023-12-20T10:09:10;3.41;70.52
78896;HTU21D;68284;59.124;37.910;2023-12-20T10:11:37;3.50;70.37
78896;HTU21D;68284;59.124;37.910;2023-12-20T10:14:05;3.58;70.13
78896;HTU21D;68284;59.124;37.910;2023-12-20T10:16:31;3.63;69.84
78896;HTU21D;68284;59.124;37.910;2023-12-20T10:19:01;3.63;69.58
78896;HTU21D;68284;59.124;37.910;2023-12-20T10:21:28;3.63;69.71
78896;HTU21D;68284;59.124;37.910;2023-12-20T10:23:55;3.62;69.74
78896;HTU21D;68284;59.124;37.910;2023-12-20T10:26:24;3.62;69.59
78896;HTU21D;68284;59.124;37.910;2023-12-20T10:28:56;3.59;69.36
78896;HTU21D;68284;59.124;37.910;2023-12-20T10:31:33;3.58;69.35
78896;HTU21D;68284;59.124;37.910;2023-12-20T10:34:02;3.60;70.82
78896;HTU21D;68284;59.124;37.910;2023-12-20T10:36:34;3.95;72.29
78896;HTU21D;68284;59.124;37.910;2023-12-20T10:39:02;4.43;71.98
78896;HTU21D;68284;59.124;37.910;2023-12-20T10:41:32;4.89;72.04
78896;HTU21D;68284;59.124;37.910;2023-12-20T10:44:07;5.27;69.52
78896;HTU21D;68284;59.124;37.910;2023-12-20T10:46:34;5.51;68.84
78896;HTU21D;68284;59.124;37.910;2023-12-20T10:49:02;5.66;68.04
78896;HTU21D;68284;59.124;37.910;2023-12-20T10:51:31;5.68;65.22
78896;HTU21D;68284;59.124;37.910;2023-12-20T10:53:58;5.41;65.27
78896;HTU21D;68284;59.124;37.910;2023-12-20T10:56:24;5.11;65.64
78896;HTU21D;68284;59.124;37.910;2023-12-20T10:58:52;4.84;66.06
78896;HTU21D;68284;59.124;37.910;2023-12-20T11:01:19;4.62;66.55
78896;HTU21D;68284;59.124;37.910;2023-12-20T11:03:54;4.41;66.49
78896;HTU21D;68284;59.124;37.910;2023-12-20T11:06:28;4.24;66.40
78896;HTU21D;68284;59.124;37.910;2023-12-20T11:14:22;3.84;67.00
78896;HTU21D;68284;59.124;37.910;2023-12-20T11:17:05;3.74;67.08
78896;HTU21D;68284;59.124;37.910;2023-12-20T11:19:32;3.67;67.11
78896;HTU21D;68284;59.124;37.910;2023-12-20T11:21:58;3.61;67.18
78896;HTU21D;68284;59.124;37.910;2023-12-20T11:24:25;3.57;67.09
78896;HTU21D;68284;59.124;37.910;2023-12-20T11:26:55;3.56;66.91
78896;HTU21D;68284;59.124;37.910;2023-12-20T11:29:35;3.54;66.74
78896;HTU21D;68284;59.124;37.910;2023-12-20T11:32:03;3.49;66.46
78896;HTU21D;68284;59.124;37.910;2023-12-20T11:34:35;3.49;66.58
78896;HTU21D;68284;59.124;37.910;2023-12-20T11:37:02;3.48;66.48
78896;HTU21D;68284;59.124;37.910;2023-12-20T11:39:30;3.47;66.42
78896;HTU21D;68284;59.124;37.910;2023-12-20T11:41:57;3.46;66.42
78896;HTU21D;68284;59.124;37.910;2023-12-20T11:44:25;3.45;66.30
78896;HTU21D;68284;59.124;37.910;2023-12-20T11:46:52;3.42;66.33
78896;HTU21D;68284;59.124;37.910;2023-12-20T11:49:23;3.42;66.20
78896;HTU21D;68284;59.124;37.910;2023-12-20T11:51:50;3.42;66.19
78896;HTU21D;68284;59.124;37.910;2023-12-20T11:54:17;3.41;66.19
78896;HTU21D;68284;59.124;37.910;2023-12-20T11:56:45;3.40;65.90
78896;HTU21D;68284;59.124;37.910;2023-12-20T11:59:12;3.39;65.82
78896;HTU21D;68284;59.124;37.910;2023-12-20T12:01:38;3.39;65.78
78896;HTU21D;68284;59.124;37.910;2023-12-20T12:04:07;3.41;66.01
78896;HTU21D;68284;59.124;37.910;2023-12-20T12:06:34;3.40;66.00
78896;HTU21D;68284;59.124;37.910;2023-12-20T12:09:00;3.41;65.93
78896;HTU21D;68284;59.124;37.910;2023-12-20T12:11:27;3.41;66.20
78896;HTU21D;68284;59.124;37.910;2023-12-20T12:13:53;3.41;66.10
78896;HTU21D;68284;59.124;37.910;2023-12-20T12:16:20;3.41;66.20
78896;HTU21D;68284;59.124;37.910;2023-12-20T12:18:55;3.41;66.11
78896;HTU21D;68284;59.124;37.910;2023-12-20T12:21:21;3.40;66.34
78896;HTU21D;68284;59.124;37.910;2023-12-20T12:23:48;3.39;66.47
78896;HTU21D;68284;59.124;37.910;2023-12-20T12:26:16;3.38;66.46
78896;HTU21D;68284;59.124;37.910;2023-12-20T12:28:42;3.38;66.40
78896;HTU21D;68284;59.124;37.910;2023-12-20T12:31:13;3.36;66.44
78896;HTU21D;68284;59.124;37.910;2023-12-20T12:33:43;3.35;66.56
78896;HTU21D;68284;59.124;37.910;2023-12-20T12:36:10;3.33;66.62
78896;HTU21D;68284;59.124;37.910;2023-12-20T12:38:38;3.31;66.59
78896;HTU21D;68284;59.124;37.910;2023-12-20T12:41:04;3.32;66.75
78896;HTU21D;68284;59.124;37.910;2023-12-20T12:43:31;3.31;66.90
78896;HTU21D;68284;59.124;37.910;2023-12-20T12:45:57;3.28;66.97
78896;HTU21D;68284;59.124;37.910;2023-12-20T12:48:24;3.28;67.11
78896;HTU21D;68284;59.124;37.910;2023-12-20T12:50:50;3.26;67.21
78896;HTU21D;68284;59.124;37.910;2023-12-20T12:53:19;3.25;67.34
78896;HTU21D;68284;59.124;37.910;2023-12-20T12:55:45;3.25;67.45
78896;HTU21D;68284;59.124;37.910;2023-12-20T12:58:12;3.23;67.55
78896;HTU21D;68284;59.124;37.910;2023-12-20T13:00:38;3.21;67.50
78896;HTU21D;68284;59.124;37.910;2023-12-20T13:03:05;3.21;67.55
78896;HTU21D;68284;59.124;37.910;2023-12-20T13:05:31;3.20;67.59
78896;HTU21D;68284;59.124;37.910;2023-12-20T13:07:57;3.24;67.56
78896;HTU21D;68284;59.124;37.910;2023-12-20T13:10:24;3.25;67.59
78896;HTU21D;68284;59.124;37.910;2023-12-20T13:12:50;3.25;67.62
78896;HTU21D;68284;59.124;37.910;2023-12-20T13:15:17;3.27;67.53
78896;HTU21D;68284;59.124;37.910;2023-12-20T13:17:49;3.27;67.55
78896;HTU21D;68284;59.124;37.910;2023-12-20T13:20:15;3.29;67.51
78896;HTU21D;68284;59.124;37.910;2023-12-20T13:22:42;3.30;67.44
78896;HTU21D;68284;59.124;37.910;2023-12-20T13:25:09;3.32;67.43
78896;HTU21D;68284;59.124;37.910;2023-12-20T13:27:36;3.35;67.42
78896;HTU21D;68284;59.124;37.910;2023-12-20T13:30:04;3.35;67.47
78896;HTU21D;68284;59.124;37.910;2023-12-20T13:32:31;3.35;67.41
78896;HTU21D;68284;59.124;37.910;2023-12-20T13:34:58;3.36;67.40
78896;HTU21D;68284;59.124;37.910;2023-12-20T13:37:24;3.36;67.37
78896;HTU21D;68284;59.124;37.910;2023-12-20T13:39:50;3.36;67.23
78896;HTU21D;68284;59.124;37.910;2023-12-20T13:42:17;3.39;67.17
78896;HTU21D;68284;59.124;37.910;2023-12-20T13:44:43;3.39;67.30
78896;HTU21D;68284;59.124;37.910;2023-12-20T13:47:10;3.40;66.85
78896;HTU21D;68284;59.124;37.910;2023-12-20T13:49:36;3.41;66.57
78896;HTU21D;68284;59.124;37.910;2023-12-20T13:52:02;3.41;66.20
78896;HTU21D;68284;59.124;37.910;2023-12-20T13:54:30;3.41;65.95
78896;HTU21D;68284;59.124;37.910;2023-12-20T13:56:56;3.42;65.86
78896;HTU21D;68284;59.124;37.910;2023-12-20T13:59:23;3.40;65.95
78896;HTU21D;68284;59.124;37.910;2023-12-20T14:01:50;3.41;66.02
78896;HTU21D;68284;59.124;37.910;2023-12-20T14:04:16;3.40;66.11
78896;HTU21D;68284;59.124;37.910;2023-12-20T14:06:42;3.40;66.25
78896;HTU21D;68284;59.124;37.910;2023-12-20T14:09:08;3.38;66.39
78896;HTU21D;68284;59.124;37.910;2023-12-20T14:11:37;3.39;66.39
78896;HTU21D;68284;59.124;37.910;2023-12-20T14:14:07;3.38;66.17
78896;HTU21D;68284;59.124;37.910;2023-12-20T14:16:35;3.35;66.16
78896;HTU21D;68284;59.124;37.910;2023-12-20T14:19:01;3.34;66.24
78896;HTU21D;68284;59.124;37.910;2023-12-20T14:21:29;3.35;66.17
78896;HTU21D;68284;59.124;37.910;2023-12-20T14:23:55;3.34;66.20
78896;HTU21D;68284;59.124;37.910;2023-12-20T14:26:22;3.34;66.24
78896;HTU21D;68284;59.124;37.910;2023-12-20T14:28:50;3.33;66.21
78896;HTU21D;68284;59.124;37.910;2023-12-20T14:31:17;3.33;66.14
78896;HTU21D;68284;59.124;37.910;2023-12-20T14:33:43;3.32;65.95
78896;HTU21D;68284;59.124;37.910;2023-12-20T14:36:10;3.31;65.88
78896;HTU21D;68284;59.124;37.910;2023-12-20T14:38:36;3.30;65.63
78896;HTU21D;68284;59.124;37.910;2023-12-20T14:41:05;3.28;65.48
78896;HTU21D;68284;59.124;37.910;2023-12-20T14:43:35;3.27;65.47
78896;HTU21D;68284;59.124;37.910;2023-12-20T14:46:02;3.27;65.53
78896;HTU21D;68284;59.124;37.910;2023-12-20T14:48:29;3.25;65.73
78896;HTU21D;68284;59.124;37.910;2023-12-20T14:50:55;3.26;65.93
78896;HTU21D;68284;59.124;37.910;2023-12-20T14:53:22;3.24;66.03
78896;HTU21D;68284;59.124;37.910;2023-12-20T14:55:48;3.21;66.19
78896;HTU21D;68284;59.124;37.910;2023-12-20T14:58:16;3.20;66.23
78896;HTU21D;68284;59.124;37.910;2023-12-20T15:00:42;3.20;66.39
78896;HTU21D;68284;59.124;37.910;2023-12-20T15:03:10;3.18;66.33
78896;HTU21D;68284;59.124;37.910;2023-12-20T15:05:37;3.17;66.44
78896;HTU21D;68284;59.124;37.910;2023-12-20T15:08:05;3.15;66.36
78896;HTU21D;68284;59.124;37.910;2023-12-20T15:10:31;3.15;66.32
78896;HTU21D;68284;59.124;37.910;2023-12-20T15:12:58;3.15;66.33
78896;HTU21D;68284;59.124;37.910;2023-12-20T15:15:24;3.13;66.20
78896;HTU21D;68284;59.124;37.910;2023-12-20T15:17:53;3.13;66.33
78896;HTU21D;68284;59.124;37.910;2023-12-20T15:20:20;3.13;66.30